WJA438 CYYT-CYFB
Flight info
| Callsign | WJA438 |
|---|---|
| Flight time | 2h 33m |
| Altitude | 34000 |
| Route | MELDI DCT DUVBI DCT LOPVI |
| Aircraft | B738/M-SDE2E3FGHIRWXY/LB1 |
Departure
| Time | 2026-05-07 23:46 |
|---|---|
| Airport | St. John's International Airport (CYYT) |
Arrival
| Time | 2026-05-08 02:19 |
|---|---|
| Airport | Iqaluit Airport (CYFB) |
| Time | Latitude | Longitude | Altitude | Speed | Heading |
|---|---|---|---|---|---|
| 2026-05-07 23:18 | 47.61404 | -52.74396 | 448 ft | 0 kts | 202° |
| 2026-05-07 23:35 | 47.61417 | -52.74388 | 448 ft | 4 kts | 206° |
| 2026-05-07 23:36 | 47.61441 | -52.74371 | 448 ft | 4 kts | 203° |
| 2026-05-07 23:36 | 47.61466 | -52.74356 | 448 ft | 4 kts | 199° |
| 2026-05-07 23:36 | 47.61489 | -52.74345 | 448 ft | 1 kts | 199° |
| 2026-05-07 23:36 | 47.61494 | -52.74342 | 448 ft | 0 kts | 199° |
| 2026-05-07 23:41 | 47.61499 | -52.74372 | 448 ft | 7 kts | 354° |
| 2026-05-07 23:41 | 47.61547 | -52.74291 | 441 ft | 13 kts | 56° |
| 2026-05-07 23:41 | 47.61606 | -52.74252 | 441 ft | 9 kts | 338° |
| 2026-05-07 23:42 | 47.61671 | -52.74333 | 430 ft | 16 kts | 319° |
| 2026-05-07 23:42 | 47.61767 | -52.74455 | 451 ft | 19 kts | 319° |
| 2026-05-07 23:42 | 47.61866 | -52.74583 | 461 ft | 19 kts | 319° |
| 2026-05-07 23:42 | 47.61958 | -52.74700 | 461 ft | 12 kts | 320° |
| 2026-05-07 23:43 | 47.62026 | -52.74751 | 461 ft | 11 kts | 12° |
| 2026-05-07 23:43 | 47.62053 | -52.74724 | 458 ft | 1 kts | 46° |
| 2026-05-07 23:43 | 47.62088 | -52.74670 | 454 ft | 17 kts | 46° |
| 2026-05-07 23:43 | 47.62202 | -52.74689 | 451 ft | 19 kts | 322° |
| 2026-05-07 23:44 | 47.62298 | -52.74812 | 451 ft | 18 kts | 318° |
| 2026-05-07 23:44 | 47.62391 | -52.74937 | 433 ft | 19 kts | 317° |
| 2026-05-07 23:44 | 47.62484 | -52.75072 | 444 ft | 18 kts | 310° |
| 2026-05-07 23:44 | 47.62537 | -52.75203 | 443 ft | 14 kts | 330° |
| 2026-05-07 23:45 | 47.62555 | -52.75141 | 435 ft | 7 kts | 140° |
| 2026-05-07 23:45 | 47.62552 | -52.75137 | 443 ft | 0 kts | 139° |
| 2026-05-07 23:45 | 47.62492 | -52.75059 | 442 ft | 41 kts | 138° |
| 2026-05-07 23:46 | 47.62086 | -52.74536 | 448 ft | 112 kts | 140° |
| 2026-05-07 23:46 | 47.61344 | -52.73575 | 499 ft | 164 kts | 138° |
| 2026-05-07 23:46 | 47.60533 | -52.72428 | 1316 ft | 161 kts | 145° |
| 2026-05-07 23:46 | 47.59721 | -52.71256 | 2158 ft | 164 kts | 138° |
| 2026-05-07 23:47 | 47.58947 | -52.69878 | 2675 ft | 190 kts | 128° |
| 2026-05-07 23:47 | 47.58630 | -52.67785 | 2979 ft | 232 kts | 93° |
| 2026-05-07 23:47 | 47.59222 | -52.65435 | 3534 ft | 260 kts | 62° |
| 2026-05-07 23:47 | 47.60623 | -52.63629 | 4102 ft | 277 kts | 30° |
| 2026-05-07 23:48 | 47.62517 | -52.62921 | 4688 ft | 287 kts | 360° |
| 2026-05-07 23:48 | 47.64532 | -52.63416 | 5053 ft | 303 kts | 340° |
| 2026-05-07 23:48 | 47.66476 | -52.64637 | 5820 ft | 304 kts | 326° |
| 2026-05-07 23:48 | 47.68297 | -52.66226 | 6681 ft | 304 kts | 324° |
| 2026-05-07 23:49 | 47.70121 | -52.67846 | 7475 ft | 308 kts | 325° |
| 2026-05-07 23:49 | 47.71999 | -52.69426 | 8262 ft | 312 kts | 326° |
| 2026-05-07 23:49 | 47.73926 | -52.70954 | 9058 ft | 316 kts | 327° |
| 2026-05-07 23:49 | 47.75899 | -52.72433 | 9783 ft | 321 kts | 329° |
| 2026-05-07 23:50 | 47.77938 | -52.73890 | 10402 ft | 333 kts | 330° |
| 2026-05-07 23:50 | 47.80119 | -52.75413 | 10610 ft | 359 kts | 331° |
| 2026-05-07 23:50 | 47.82459 | -52.77005 | 10940 ft | 377 kts | 332° |
| 2026-05-07 23:50 | 47.84873 | -52.78615 | 11667 ft | 381 kts | 332° |
| 2026-05-07 23:51 | 47.87309 | -52.80223 | 12370 ft | 385 kts | 332° |
| 2026-05-07 23:51 | 47.89782 | -52.81845 | 13050 ft | 389 kts | 333° |
| 2026-05-07 23:51 | 47.92236 | -52.83450 | 13787 ft | 391 kts | 333° |
| 2026-05-07 23:51 | 47.94760 | -52.85100 | 14550 ft | 392 kts | 333° |
| 2026-05-07 23:52 | 47.97234 | -52.86719 | 15253 ft | 394 kts | 333° |
| 2026-05-07 23:52 | 47.99750 | -52.88367 | 15936 ft | 396 kts | 333° |
| 2026-05-07 23:52 | 48.02285 | -52.90029 | 16625 ft | 398 kts | 332° |
| 2026-05-07 23:52 | 48.04830 | -52.91701 | 17226 ft | 402 kts | 332° |
| 2026-05-07 23:53 | 48.07398 | -52.93391 | 17838 ft | 405 kts | 332° |
| 2026-05-07 23:53 | 48.09985 | -52.95094 | 18477 ft | 407 kts | 332° |
| 2026-05-07 23:53 | 48.12581 | -52.96805 | 19081 ft | 409 kts | 332° |
| 2026-05-07 23:53 | 48.15195 | -52.98531 | 19664 ft | 412 kts | 332° |
| 2026-05-07 23:54 | 48.17825 | -53.00270 | 20193 ft | 415 kts | 332° |
| 2026-05-07 23:54 | 48.20479 | -53.02026 | 20717 ft | 418 kts | 332° |
| 2026-05-07 23:54 | 48.23146 | -53.03792 | 21278 ft | 420 kts | 332° |
| 2026-05-07 23:54 | 48.25825 | -53.05569 | 21793 ft | 422 kts | 332° |
| 2026-05-07 23:55 | 48.28520 | -53.07358 | 22299 ft | 425 kts | 332° |
| 2026-05-07 23:55 | 48.31230 | -53.09159 | 22779 ft | 427 kts | 332° |
| 2026-05-07 23:55 | 48.33961 | -53.10977 | 23230 ft | 430 kts | 332° |
| 2026-05-07 23:55 | 48.36704 | -53.12804 | 23697 ft | 432 kts | 332° |
| 2026-05-07 23:56 | 48.39457 | -53.14639 | 24161 ft | 434 kts | 332° |
| 2026-05-07 23:56 | 48.42189 | -53.16464 | 24572 ft | 436 kts | 332° |
| 2026-05-07 23:56 | 48.45002 | -53.18344 | 25025 ft | 438 kts | 332° |
| 2026-05-07 23:56 | 48.47760 | -53.20190 | 25463 ft | 440 kts | 332° |
| 2026-05-07 23:57 | 48.50558 | -53.22065 | 25882 ft | 441 kts | 332° |
| 2026-05-07 23:57 | 48.53371 | -53.23953 | 26278 ft | 443 kts | 332° |
| 2026-05-07 23:57 | 48.56194 | -53.25852 | 26645 ft | 446 kts | 332° |
| 2026-05-07 23:57 | 48.59030 | -53.27760 | 27037 ft | 447 kts | 332° |
| 2026-05-07 23:58 | 48.61878 | -53.29678 | 27426 ft | 448 kts | 332° |
| 2026-05-07 23:58 | 48.64726 | -53.31598 | 27794 ft | 449 kts | 331° |
| 2026-05-07 23:58 | 48.67595 | -53.33534 | 28111 ft | 452 kts | 331° |
| 2026-05-07 23:58 | 48.70471 | -53.35479 | 28440 ft | 454 kts | 331° |
| 2026-05-07 23:59 | 48.73352 | -53.37429 | 28799 ft | 454 kts | 331° |
| 2026-05-07 23:59 | 48.75268 | -53.38727 | 29030 ft | 455 kts | 331° |
| 2026-05-07 23:59 | 48.78154 | -53.40685 | 29416 ft | 454 kts | 331° |
| 2026-05-07 23:59 | 48.81027 | -53.42633 | 29874 ft | 451 kts | 330° |
| 2026-05-08 00:00 | 48.83888 | -53.44575 | 30392 ft | 447 kts | 330° |
| 2026-05-08 00:00 | 48.86714 | -53.46496 | 30865 ft | 444 kts | 330° |
| 2026-05-08 00:00 | 48.89532 | -53.48417 | 31209 ft | 444 kts | 330° |
| 2026-05-08 00:00 | 48.92355 | -53.50346 | 31482 ft | 445 kts | 329° |
| 2026-05-08 00:01 | 48.95175 | -53.52277 | 31817 ft | 444 kts | 329° |
| 2026-05-08 00:01 | 48.97940 | -53.54309 | 32172 ft | 439 kts | 324° |
| 2026-05-08 00:01 | 49.00581 | -53.56600 | 32545 ft | 435 kts | 323° |
| 2026-05-08 00:01 | 49.03198 | -53.58889 | 32940 ft | 433 kts | 324° |
| 2026-05-08 00:02 | 49.05815 | -53.61059 | 33269 ft | 434 kts | 325° |
| 2026-05-08 00:02 | 49.08543 | -53.63180 | 33516 ft | 435 kts | 327° |
| 2026-05-08 00:02 | 49.11241 | -53.65167 | 33739 ft | 437 kts | 327° |
| 2026-05-08 00:02 | 49.14002 | -53.67124 | 33893 ft | 440 kts | 327° |
| 2026-05-08 00:03 | 49.19621 | -53.71002 | 33856 ft | 442 kts | 327° |
| 2026-05-08 00:03 | 49.25197 | -53.74807 | 33851 ft | 437 kts | 327° |
| 2026-05-08 00:04 | 49.30810 | -53.78662 | 33857 ft | 447 kts | 327° |
| 2026-05-08 00:04 | 49.36546 | -53.82638 | 33854 ft | 458 kts | 327° |
| 2026-05-08 00:05 | 49.42403 | -53.86715 | 33850 ft | 466 kts | 327° |
| 2026-05-08 00:05 | 49.48347 | -53.90833 | 33841 ft | 468 kts | 327° |
| 2026-05-08 00:06 | 49.54278 | -53.94947 | 33845 ft | 468 kts | 327° |
| 2026-05-08 00:06 | 49.60180 | -53.99064 | 33839 ft | 468 kts | 327° |
| 2026-05-08 00:07 | 49.66117 | -54.03217 | 33844 ft | 468 kts | 327° |
| 2026-05-08 00:07 | 49.72050 | -54.07374 | 33842 ft | 468 kts | 326° |
| 2026-05-08 00:08 | 49.77979 | -54.11549 | 33848 ft | 467 kts | 327° |
| 2026-05-08 00:08 | 49.83906 | -54.15731 | 33830 ft | 468 kts | 326° |
| 2026-05-08 00:09 | 49.89830 | -54.19928 | 33834 ft | 468 kts | 326° |
| 2026-05-08 00:09 | 49.95764 | -54.24141 | 33837 ft | 469 kts | 326° |
| 2026-05-08 00:10 | 50.01700 | -54.28365 | 33832 ft | 469 kts | 326° |
| 2026-05-08 00:10 | 50.07642 | -54.32604 | 33826 ft | 470 kts | 326° |
| 2026-05-08 00:11 | 50.13559 | -54.36835 | 33826 ft | 470 kts | 326° |
| 2026-05-08 00:11 | 50.19514 | -54.41109 | 33824 ft | 471 kts | 326° |
| 2026-05-08 00:12 | 50.25470 | -54.45389 | 33819 ft | 472 kts | 326° |
| 2026-05-08 00:12 | 50.31434 | -54.49692 | 33810 ft | 472 kts | 326° |
| 2026-05-08 00:13 | 50.37407 | -54.54017 | 33815 ft | 474 kts | 326° |
| 2026-05-08 00:13 | 50.43402 | -54.58369 | 33801 ft | 475 kts | 326° |
| 2026-05-08 00:14 | 50.49411 | -54.62742 | 33781 ft | 477 kts | 326° |
| 2026-05-08 00:14 | 50.55443 | -54.67141 | 33792 ft | 479 kts | 326° |
| 2026-05-08 00:15 | 50.61500 | -54.71574 | 33764 ft | 481 kts | 326° |
| 2026-05-08 00:15 | 50.67569 | -54.76024 | 33756 ft | 482 kts | 326° |
| 2026-05-08 00:16 | 50.73662 | -54.80507 | 33770 ft | 483 kts | 326° |
| 2026-05-08 00:16 | 50.79769 | -54.85014 | 33759 ft | 485 kts | 326° |
| 2026-05-08 00:17 | 50.85859 | -54.89521 | 33762 ft | 486 kts | 326° |
| 2026-05-08 00:17 | 50.91986 | -54.94068 | 33752 ft | 487 kts | 326° |
| 2026-05-08 00:18 | 50.98133 | -54.98644 | 33752 ft | 488 kts | 326° |
| 2026-05-08 00:18 | 51.04282 | -55.03233 | 33751 ft | 488 kts | 326° |
| 2026-05-08 00:19 | 51.10435 | -55.07841 | 33742 ft | 489 kts | 326° |
| 2026-05-08 00:19 | 51.16595 | -55.12468 | 33750 ft | 490 kts | 326° |
| 2026-05-08 00:20 | 51.22726 | -55.17086 | 33746 ft | 490 kts | 326° |
| 2026-05-08 00:20 | 51.28900 | -55.21748 | 33753 ft | 491 kts | 326° |
| 2026-05-08 00:21 | 51.35088 | -55.26438 | 33737 ft | 492 kts | 326° |
| 2026-05-08 00:21 | 51.41287 | -55.31150 | 33738 ft | 493 kts | 326° |
| 2026-05-08 00:22 | 51.47486 | -55.35875 | 33738 ft | 494 kts | 326° |
| 2026-05-08 00:22 | 51.53700 | -55.40625 | 33742 ft | 494 kts | 326° |
| 2026-05-08 00:23 | 51.59914 | -55.45391 | 33743 ft | 495 kts | 326° |
| 2026-05-08 00:23 | 51.66142 | -55.50183 | 33740 ft | 496 kts | 326° |
| 2026-05-08 00:24 | 51.72372 | -55.54992 | 33740 ft | 497 kts | 326° |
| 2026-05-08 00:24 | 51.78573 | -55.59792 | 33738 ft | 498 kts | 326° |
| 2026-05-08 00:25 | 51.84819 | -55.64640 | 33741 ft | 499 kts | 326° |
| 2026-05-08 00:25 | 51.91078 | -55.69512 | 33737 ft | 499 kts | 326° |
| 2026-05-08 00:26 | 51.97339 | -55.74406 | 33732 ft | 500 kts | 326° |
| 2026-05-08 00:26 | 52.03604 | -55.79317 | 33726 ft | 500 kts | 326° |
| 2026-05-08 00:27 | 52.09883 | -55.84253 | 33732 ft | 501 kts | 326° |
| 2026-05-08 00:27 | 52.16150 | -55.89196 | 33739 ft | 501 kts | 326° |
| 2026-05-08 00:28 | 52.22419 | -55.94153 | 33722 ft | 501 kts | 326° |
| 2026-05-08 00:28 | 52.28682 | -55.99124 | 33734 ft | 500 kts | 326° |
| 2026-05-08 00:29 | 52.34942 | -56.04108 | 33723 ft | 501 kts | 326° |
| 2026-05-08 00:29 | 52.41203 | -56.09108 | 33720 ft | 500 kts | 326° |
| 2026-05-08 00:30 | 52.47451 | -56.14115 | 33720 ft | 500 kts | 326° |
| 2026-05-08 00:30 | 52.53667 | -56.19112 | 33714 ft | 500 kts | 326° |
| 2026-05-08 00:31 | 52.59917 | -56.24151 | 33721 ft | 500 kts | 326° |
| 2026-05-08 00:31 | 52.66166 | -56.29206 | 33692 ft | 501 kts | 325° |
| 2026-05-08 00:32 | 52.72408 | -56.34300 | 33688 ft | 499 kts | 323° |
| 2026-05-08 00:32 | 52.75320 | -56.37304 | 33659 ft | 488 kts | 314° |
| 2026-05-08 00:32 | 52.77998 | -56.40706 | 33728 ft | 484 kts | 312° |
| 2026-05-08 00:33 | 52.83278 | -56.47656 | 33675 ft | 486 kts | 312° |
| 2026-05-08 00:33 | 52.88578 | -56.54622 | 33672 ft | 487 kts | 312° |
| 2026-05-08 00:34 | 52.93907 | -56.61564 | 33653 ft | 488 kts | 312° |
| 2026-05-08 00:34 | 52.99251 | -56.68505 | 33654 ft | 488 kts | 313° |
| 2026-05-08 00:35 | 53.04562 | -56.75416 | 33632 ft | 488 kts | 312° |
| 2026-05-08 00:35 | 53.09903 | -56.82393 | 33629 ft | 488 kts | 312° |
| 2026-05-08 00:36 | 53.15242 | -56.89396 | 33631 ft | 489 kts | 312° |
| 2026-05-08 00:36 | 53.20584 | -56.96424 | 33613 ft | 489 kts | 312° |
| 2026-05-08 00:37 | 53.25932 | -57.03482 | 33605 ft | 490 kts | 312° |
| 2026-05-08 00:38 | 53.33949 | -57.14109 | 33586 ft | 490 kts | 312° |
| 2026-05-08 00:38 | 53.39292 | -57.21220 | 33581 ft | 491 kts | 312° |
| 2026-05-08 00:39 | 53.44630 | -57.28348 | 33591 ft | 491 kts | 312° |
| 2026-05-08 00:39 | 53.49973 | -57.35507 | 33581 ft | 491 kts | 312° |
| 2026-05-08 00:40 | 53.55320 | -57.42696 | 33575 ft | 493 kts | 312° |
| 2026-05-08 00:40 | 53.60670 | -57.49914 | 33578 ft | 494 kts | 311° |
| 2026-05-08 00:41 | 53.66037 | -57.57177 | 33572 ft | 495 kts | 311° |
| 2026-05-08 00:41 | 53.71371 | -57.64419 | 33571 ft | 496 kts | 311° |
| 2026-05-08 00:42 | 53.76749 | -57.71746 | 33562 ft | 497 kts | 311° |
| 2026-05-08 00:42 | 53.82127 | -57.79095 | 33560 ft | 497 kts | 311° |
| 2026-05-08 00:43 | 53.87504 | -57.86470 | 33561 ft | 498 kts | 311° |
| 2026-05-08 00:43 | 53.92883 | -57.93873 | 33558 ft | 498 kts | 311° |
| 2026-05-08 00:44 | 53.98261 | -58.01301 | 33558 ft | 498 kts | 311° |
| 2026-05-08 00:44 | 54.03626 | -58.08735 | 33560 ft | 498 kts | 311° |
| 2026-05-08 00:45 | 54.08986 | -58.16188 | 33563 ft | 498 kts | 311° |
| 2026-05-08 00:45 | 54.14314 | -58.23629 | 33562 ft | 498 kts | 311° |
| 2026-05-08 00:46 | 54.19678 | -58.31137 | 33552 ft | 498 kts | 311° |
| 2026-05-08 00:46 | 54.25035 | -58.38664 | 33565 ft | 498 kts | 311° |
| 2026-05-08 00:47 | 54.30389 | -58.46212 | 33546 ft | 499 kts | 310° |
| 2026-05-08 00:47 | 54.35739 | -58.53787 | 33552 ft | 499 kts | 310° |
| 2026-05-08 00:48 | 54.40185 | -58.60098 | 33543 ft | 499 kts | 310° |
| 2026-05-08 00:48 | 54.45535 | -58.67711 | 33555 ft | 499 kts | 310° |
| 2026-05-08 00:49 | 54.50891 | -58.75364 | 33555 ft | 500 kts | 310° |
| 2026-05-08 00:49 | 54.56248 | -58.83045 | 33549 ft | 501 kts | 310° |
| 2026-05-08 00:50 | 54.61605 | -58.90757 | 33552 ft | 502 kts | 310° |
| 2026-05-08 00:50 | 54.66925 | -58.98445 | 33535 ft | 503 kts | 309° |
| 2026-05-08 00:51 | 54.72296 | -59.06228 | 33542 ft | 504 kts | 309° |
| 2026-05-08 00:51 | 54.77666 | -59.14041 | 33541 ft | 504 kts | 309° |
| 2026-05-08 00:52 | 54.83041 | -59.21885 | 33547 ft | 505 kts | 309° |
| 2026-05-08 00:52 | 54.88412 | -59.29753 | 33547 ft | 506 kts | 309° |
| 2026-05-08 00:53 | 54.93785 | -59.37651 | 33543 ft | 506 kts | 309° |
| 2026-05-08 00:53 | 54.99145 | -59.45558 | 33545 ft | 505 kts | 309° |
| 2026-05-08 00:54 | 55.04501 | -59.53495 | 33539 ft | 505 kts | 309° |
| 2026-05-08 00:54 | 55.09817 | -59.61400 | 33546 ft | 506 kts | 309° |
| 2026-05-08 00:55 | 55.15057 | -59.69217 | 33540 ft | 506 kts | 309° |
| 2026-05-08 00:55 | 55.20413 | -59.77234 | 33558 ft | 506 kts | 309° |
| 2026-05-08 00:56 | 55.25751 | -59.85255 | 33557 ft | 506 kts | 308° |
| 2026-05-08 00:56 | 55.31098 | -59.93320 | 33551 ft | 506 kts | 308° |
| 2026-05-08 00:57 | 55.36433 | -60.01396 | 33558 ft | 506 kts | 308° |
| 2026-05-08 00:57 | 55.41766 | -60.09501 | 33546 ft | 507 kts | 308° |
| 2026-05-08 00:58 | 55.47092 | -60.17623 | 33547 ft | 507 kts | 308° |
| 2026-05-08 00:58 | 55.52417 | -60.25776 | 33560 ft | 507 kts | 308° |
| 2026-05-08 00:59 | 55.57741 | -60.33954 | 33548 ft | 507 kts | 308° |
| 2026-05-08 00:59 | 55.63028 | -60.42110 | 33557 ft | 507 kts | 308° |
| 2026-05-08 01:00 | 55.68344 | -60.50338 | 33558 ft | 507 kts | 308° |
| 2026-05-08 01:00 | 55.73651 | -60.58581 | 33547 ft | 507 kts | 308° |
| 2026-05-08 01:01 | 55.78946 | -60.66843 | 33552 ft | 507 kts | 308° |
| 2026-05-08 01:01 | 55.84236 | -60.75128 | 33549 ft | 507 kts | 308° |
| 2026-05-08 01:02 | 55.89484 | -60.83376 | 33562 ft | 506 kts | 309° |
| 2026-05-08 01:02 | 55.94762 | -60.91702 | 33551 ft | 507 kts | 309° |
| 2026-05-08 01:03 | 56.00144 | -60.99904 | 33538 ft | 515 kts | 316° |
| 2026-05-08 01:03 | 56.06490 | -61.06221 | 33629 ft | 524 kts | 327° |
| 2026-05-08 01:04 | 56.13073 | -61.11964 | 33576 ft | 526 kts | 328° |
| 2026-05-08 01:04 | 56.19638 | -61.17756 | 33568 ft | 524 kts | 327° |
| 2026-05-08 01:05 | 56.26150 | -61.23643 | 33560 ft | 523 kts | 327° |
| 2026-05-08 01:05 | 56.32633 | -61.29576 | 33566 ft | 522 kts | 327° |
| 2026-05-08 01:06 | 56.39049 | -61.35476 | 33571 ft | 521 kts | 327° |
| 2026-05-08 01:06 | 56.45497 | -61.41457 | 33553 ft | 519 kts | 326° |
| 2026-05-08 01:07 | 56.51925 | -61.47489 | 33555 ft | 521 kts | 328° |
| 2026-05-08 01:07 | 56.58396 | -61.53423 | 33571 ft | 520 kts | 328° |
| 2026-05-08 01:08 | 56.64848 | -61.59387 | 33563 ft | 520 kts | 328° |
| 2026-05-08 01:08 | 56.71291 | -61.65403 | 33571 ft | 519 kts | 328° |
| 2026-05-08 01:09 | 56.77720 | -61.71441 | 33557 ft | 519 kts | 327° |
| 2026-05-08 01:09 | 56.84138 | -61.77491 | 33574 ft | 518 kts | 328° |
| 2026-05-08 01:10 | 56.90545 | -61.83556 | 33571 ft | 518 kts | 328° |
| 2026-05-08 01:10 | 56.96910 | -61.89602 | 33570 ft | 518 kts | 328° |
| 2026-05-08 01:11 | 57.03296 | -61.95692 | 33565 ft | 517 kts | 328° |
| 2026-05-08 01:11 | 57.09672 | -62.01797 | 33574 ft | 515 kts | 328° |
| 2026-05-08 01:12 | 57.16020 | -62.07897 | 33561 ft | 514 kts | 329° |
| 2026-05-08 01:12 | 57.22352 | -62.14006 | 33577 ft | 512 kts | 329° |
| 2026-05-08 01:13 | 57.28660 | -62.20118 | 33563 ft | 511 kts | 329° |
| 2026-05-08 01:13 | 57.34909 | -62.26198 | 33579 ft | 510 kts | 329° |
| 2026-05-08 01:14 | 57.41118 | -62.32255 | 33571 ft | 509 kts | 329° |
| 2026-05-08 01:14 | 57.47368 | -62.38378 | 33590 ft | 507 kts | 329° |
| 2026-05-08 01:15 | 57.53612 | -62.44518 | 33577 ft | 507 kts | 329° |
| 2026-05-08 01:15 | 57.59841 | -62.50664 | 33589 ft | 506 kts | 329° |
| 2026-05-08 01:16 | 57.66064 | -62.56844 | 33599 ft | 506 kts | 329° |
| 2026-05-08 01:16 | 57.72285 | -62.63038 | 33593 ft | 507 kts | 329° |
| 2026-05-08 01:17 | 57.78524 | -62.69272 | 33590 ft | 507 kts | 329° |
| 2026-05-08 01:17 | 57.84705 | -62.75472 | 33608 ft | 507 kts | 329° |
| 2026-05-08 01:18 | 57.90941 | -62.81754 | 33614 ft | 507 kts | 329° |
| 2026-05-08 01:18 | 57.97169 | -62.88051 | 33610 ft | 508 kts | 329° |
| 2026-05-08 01:19 | 58.03388 | -62.94362 | 33617 ft | 507 kts | 329° |
| 2026-05-08 01:19 | 58.09612 | -63.00706 | 33613 ft | 507 kts | 329° |
| 2026-05-08 01:20 | 58.15775 | -63.07012 | 33628 ft | 506 kts | 329° |
| 2026-05-08 01:20 | 58.21970 | -63.13378 | 33628 ft | 506 kts | 329° |
| 2026-05-08 01:21 | 58.28160 | -63.19765 | 33608 ft | 507 kts | 328° |
| 2026-05-08 01:21 | 58.34354 | -63.26176 | 33606 ft | 506 kts | 328° |
| 2026-05-08 01:22 | 58.40540 | -63.32612 | 33596 ft | 506 kts | 328° |
| 2026-05-08 01:22 | 58.46667 | -63.39009 | 33617 ft | 505 kts | 328° |
| 2026-05-08 01:23 | 58.52831 | -63.45468 | 33623 ft | 505 kts | 328° |
| 2026-05-08 01:23 | 58.58983 | -63.51945 | 33688 ft | 504 kts | 328° |
| 2026-05-08 01:24 | 58.65127 | -63.58438 | 33687 ft | 503 kts | 328° |
| 2026-05-08 01:24 | 58.71264 | -63.64950 | 33686 ft | 504 kts | 328° |
| 2026-05-08 01:25 | 58.77410 | -63.71496 | 33689 ft | 504 kts | 328° |
| 2026-05-08 01:25 | 58.83551 | -63.78070 | 33700 ft | 505 kts | 328° |
| 2026-05-08 01:26 | 58.89693 | -63.84668 | 33692 ft | 504 kts | 328° |
| 2026-05-08 01:26 | 58.95772 | -63.91225 | 33696 ft | 503 kts | 327° |
| 2026-05-08 01:27 | 59.01891 | -63.97860 | 33698 ft | 503 kts | 327° |
| 2026-05-08 01:27 | 59.07999 | -64.04487 | 33704 ft | 503 kts | 328° |
| 2026-05-08 01:28 | 59.14104 | -64.11153 | 33707 ft | 504 kts | 327° |
| 2026-05-08 01:28 | 59.20216 | -64.17856 | 33714 ft | 504 kts | 327° |
| 2026-05-08 01:29 | 59.26336 | -64.24589 | 33715 ft | 505 kts | 328° |
| 2026-05-08 01:29 | 59.32662 | -64.30674 | 33724 ft | 508 kts | 333° |
| 2026-05-08 01:30 | 59.39099 | -64.36185 | 33724 ft | 508 kts | 333° |
| 2026-05-08 01:30 | 59.45571 | -64.41750 | 33723 ft | 509 kts | 333° |
| 2026-05-08 01:31 | 59.52026 | -64.47455 | 33735 ft | 508 kts | 332° |
| 2026-05-08 01:31 | 59.58459 | -64.53224 | 33731 ft | 507 kts | 332° |
| 2026-05-08 01:32 | 59.64884 | -64.59025 | 33716 ft | 507 kts | 332° |
| 2026-05-08 01:32 | 59.71298 | -64.64831 | 33717 ft | 507 kts | 332° |
| 2026-05-08 01:33 | 59.77722 | -64.70665 | 33727 ft | 507 kts | 332° |
| 2026-05-08 01:33 | 59.84062 | -64.76449 | 33731 ft | 507 kts | 332° |
| 2026-05-08 01:34 | 59.90468 | -64.82322 | 33734 ft | 506 kts | 332° |
| 2026-05-08 01:34 | 59.96867 | -64.88210 | 33737 ft | 506 kts | 332° |
| 2026-05-08 01:35 | 60.03210 | -64.94069 | 33731 ft | 506 kts | 332° |
| 2026-05-08 01:35 | 60.09593 | -64.99989 | 33746 ft | 505 kts | 331° |
| 2026-05-08 01:36 | 60.15964 | -65.05925 | 33740 ft | 505 kts | 332° |
| 2026-05-08 01:36 | 60.22329 | -65.11883 | 33742 ft | 505 kts | 331° |
| 2026-05-08 01:37 | 60.28692 | -65.17863 | 33748 ft | 504 kts | 331° |
| 2026-05-08 01:37 | 60.33893 | -65.22771 | 33750 ft | 504 kts | 331° |
| 2026-05-08 01:38 | 60.40254 | -65.28798 | 33754 ft | 504 kts | 331° |
| 2026-05-08 01:38 | 60.46596 | -65.34831 | 33758 ft | 504 kts | 331° |
| 2026-05-08 01:39 | 60.52946 | -65.40898 | 33756 ft | 504 kts | 331° |
| 2026-05-08 01:39 | 60.59286 | -65.46982 | 33766 ft | 504 kts | 331° |
| 2026-05-08 01:40 | 60.65592 | -65.53060 | 33750 ft | 504 kts | 331° |
| 2026-05-08 01:40 | 60.71914 | -65.59180 | 33761 ft | 503 kts | 331° |
| 2026-05-08 01:41 | 60.78238 | -65.65333 | 33762 ft | 503 kts | 331° |
| 2026-05-08 01:41 | 60.84558 | -65.71506 | 33770 ft | 503 kts | 331° |
| 2026-05-08 01:42 | 60.90876 | -65.77703 | 33764 ft | 504 kts | 330° |
| 2026-05-08 01:42 | 60.97204 | -65.83937 | 33756 ft | 504 kts | 330° |
| 2026-05-08 01:43 | 61.03526 | -65.90196 | 33767 ft | 503 kts | 330° |
| 2026-05-08 01:43 | 61.09841 | -65.96473 | 33767 ft | 503 kts | 330° |
| 2026-05-08 01:44 | 61.16148 | -66.02767 | 33772 ft | 504 kts | 330° |
| 2026-05-08 01:44 | 61.22461 | -66.09099 | 33774 ft | 504 kts | 330° |
| 2026-05-08 01:45 | 61.28730 | -66.15414 | 33783 ft | 504 kts | 330° |
| 2026-05-08 01:45 | 61.35037 | -66.21798 | 33771 ft | 504 kts | 330° |
| 2026-05-08 01:46 | 61.41344 | -66.28213 | 33783 ft | 504 kts | 330° |
| 2026-05-08 01:46 | 61.47650 | -66.34652 | 33768 ft | 504 kts | 330° |
| 2026-05-08 01:47 | 61.53950 | -66.41117 | 33792 ft | 504 kts | 330° |
| 2026-05-08 01:47 | 61.60165 | -66.47512 | 33756 ft | 482 kts | 330° |
| 2026-05-08 01:48 | 61.66007 | -66.53536 | 33731 ft | 455 kts | 330° |
| 2026-05-08 01:48 | 61.68839 | -66.56475 | 33354 ft | 452 kts | 329° |
| 2026-05-08 01:48 | 61.71638 | -66.59389 | 33113 ft | 446 kts | 329° |
| 2026-05-08 01:48 | 61.74417 | -66.62289 | 32693 ft | 444 kts | 329° |
| 2026-05-08 01:49 | 61.77174 | -66.65175 | 32329 ft | 442 kts | 328° |
| 2026-05-08 01:49 | 61.79921 | -66.68059 | 31969 ft | 439 kts | 328° |
| 2026-05-08 01:49 | 61.82650 | -66.70927 | 31592 ft | 437 kts | 328° |
| 2026-05-08 01:49 | 61.85330 | -66.73744 | 31231 ft | 435 kts | 328° |
| 2026-05-08 01:50 | 61.88032 | -66.76592 | 30860 ft | 432 kts | 327° |
| 2026-05-08 01:50 | 61.90727 | -66.79433 | 30498 ft | 431 kts | 327° |
| 2026-05-08 01:50 | 61.93402 | -66.82251 | 30138 ft | 429 kts | 327° |
| 2026-05-08 01:50 | 61.96072 | -66.85076 | 29773 ft | 427 kts | 327° |
| 2026-05-08 01:51 | 61.98727 | -66.87894 | 29414 ft | 425 kts | 327° |
| 2026-05-08 01:51 | 62.01361 | -66.90698 | 29049 ft | 423 kts | 327° |
| 2026-05-08 01:51 | 62.03979 | -66.93485 | 28682 ft | 420 kts | 328° |
| 2026-05-08 01:51 | 62.06592 | -66.96278 | 28322 ft | 418 kts | 328° |
| 2026-05-08 01:52 | 62.09182 | -66.99053 | 27947 ft | 415 kts | 328° |
| 2026-05-08 01:52 | 62.11755 | -67.01818 | 27573 ft | 413 kts | 329° |
| 2026-05-08 01:52 | 62.14315 | -67.04567 | 27212 ft | 410 kts | 329° |
| 2026-05-08 01:52 | 62.16857 | -67.07296 | 26848 ft | 407 kts | 329° |
| 2026-05-08 01:53 | 62.19382 | -67.10013 | 26490 ft | 404 kts | 329° |
| 2026-05-08 01:53 | 62.21883 | -67.12716 | 26133 ft | 402 kts | 329° |
| 2026-05-08 01:53 | 62.24375 | -67.15410 | 25765 ft | 400 kts | 330° |
| 2026-05-08 01:53 | 62.26847 | -67.18087 | 25415 ft | 396 kts | 330° |
| 2026-05-08 01:54 | 62.29300 | -67.20750 | 25073 ft | 394 kts | 330° |
| 2026-05-08 01:54 | 62.31706 | -67.23369 | 24721 ft | 391 kts | 330° |
| 2026-05-08 01:54 | 62.34131 | -67.26003 | 24361 ft | 388 kts | 330° |
| 2026-05-08 01:54 | 62.36535 | -67.28618 | 24028 ft | 385 kts | 330° |
| 2026-05-08 01:55 | 62.38917 | -67.31228 | 23676 ft | 383 kts | 330° |
| 2026-05-08 01:55 | 62.41283 | -67.33827 | 23328 ft | 380 kts | 330° |
| 2026-05-08 01:55 | 62.43630 | -67.36408 | 22995 ft | 377 kts | 330° |
| 2026-05-08 01:55 | 62.45965 | -67.38979 | 22647 ft | 375 kts | 330° |
| 2026-05-08 01:56 | 62.48282 | -67.41531 | 22306 ft | 373 kts | 331° |
| 2026-05-08 01:56 | 62.50585 | -67.44071 | 21956 ft | 370 kts | 331° |
| 2026-05-08 01:56 | 62.52846 | -67.46568 | 21642 ft | 367 kts | 330° |
| 2026-05-08 01:56 | 62.55144 | -67.49113 | 21297 ft | 365 kts | 330° |
| 2026-05-08 01:57 | 62.57370 | -67.51584 | 20968 ft | 363 kts | 330° |
| 2026-05-08 01:57 | 62.59609 | -67.54071 | 20635 ft | 361 kts | 330° |
| 2026-05-08 01:57 | 62.61840 | -67.56553 | 20304 ft | 359 kts | 331° |
| 2026-05-08 01:57 | 62.64055 | -67.59023 | 19975 ft | 357 kts | 330° |
| 2026-05-08 01:58 | 62.66256 | -67.61479 | 19653 ft | 354 kts | 330° |
| 2026-05-08 01:58 | 62.68445 | -67.63928 | 19322 ft | 353 kts | 330° |
| 2026-05-08 01:58 | 62.70623 | -67.66370 | 18995 ft | 351 kts | 330° |
| 2026-05-08 01:58 | 62.72791 | -67.68802 | 18673 ft | 349 kts | 331° |
| 2026-05-08 01:59 | 62.74942 | -67.71221 | 18344 ft | 347 kts | 330° |
| 2026-05-08 01:59 | 62.77080 | -67.73631 | 18034 ft | 344 kts | 330° |
| 2026-05-08 01:59 | 62.79193 | -67.76014 | 17867 ft | 337 kts | 330° |
| 2026-05-08 01:59 | 62.81269 | -67.78359 | 17536 ft | 336 kts | 330° |
| 2026-05-08 02:00 | 62.83344 | -67.80706 | 17229 ft | 334 kts | 330° |
| 2026-05-08 02:00 | 62.85376 | -67.83008 | 16939 ft | 332 kts | 331° |
| 2026-05-08 02:00 | 62.87425 | -67.85333 | 16638 ft | 331 kts | 331° |
| 2026-05-08 02:00 | 62.89458 | -67.87643 | 16334 ft | 329 kts | 331° |
| 2026-05-08 02:01 | 62.91487 | -67.89953 | 16027 ft | 328 kts | 331° |
| 2026-05-08 02:01 | 62.93504 | -67.92253 | 15723 ft | 326 kts | 331° |
| 2026-05-08 02:01 | 62.95511 | -67.94546 | 15422 ft | 324 kts | 331° |
| 2026-05-08 02:01 | 62.97509 | -67.96831 | 15116 ft | 323 kts | 331° |
| 2026-05-08 02:02 | 62.99501 | -67.99113 | 14814 ft | 322 kts | 331° |
| 2026-05-08 02:02 | 63.01481 | -68.01383 | 14504 ft | 320 kts | 331° |
| 2026-05-08 02:02 | 63.03453 | -68.03649 | 14209 ft | 318 kts | 331° |
| 2026-05-08 02:02 | 63.05407 | -68.05903 | 13915 ft | 316 kts | 331° |
| 2026-05-08 02:03 | 63.07354 | -68.08148 | 13609 ft | 315 kts | 331° |
| 2026-05-08 02:03 | 63.09287 | -68.10380 | 13319 ft | 314 kts | 331° |
| 2026-05-08 02:03 | 63.11226 | -68.12628 | 13016 ft | 314 kts | 331° |
| 2026-05-08 02:03 | 63.13169 | -68.14878 | 12718 ft | 316 kts | 331° |
| 2026-05-08 02:04 | 63.15110 | -68.17138 | 12420 ft | 315 kts | 331° |
| 2026-05-08 02:04 | 63.17048 | -68.19388 | 12132 ft | 313 kts | 331° |
| 2026-05-08 02:04 | 63.18974 | -68.21631 | 11823 ft | 312 kts | 331° |
| 2026-05-08 02:04 | 63.20891 | -68.23861 | 11522 ft | 310 kts | 331° |
| 2026-05-08 02:05 | 63.22805 | -68.26088 | 11237 ft | 309 kts | 331° |
| 2026-05-08 02:05 | 63.24701 | -68.28303 | 10929 ft | 308 kts | 331° |
| 2026-05-08 02:05 | 63.26588 | -68.30509 | 10640 ft | 306 kts | 331° |
| 2026-05-08 02:05 | 63.28447 | -68.32685 | 10362 ft | 305 kts | 331° |
| 2026-05-08 02:06 | 63.30323 | -68.34887 | 10096 ft | 303 kts | 331° |
| 2026-05-08 02:06 | 63.32166 | -68.37055 | 9941 ft | 298 kts | 331° |
| 2026-05-08 02:06 | 63.34007 | -68.39221 | 9608 ft | 299 kts | 331° |
| 2026-05-08 02:06 | 63.35832 | -68.41382 | 9366 ft | 296 kts | 331° |
| 2026-05-08 02:07 | 63.37653 | -68.43530 | 9082 ft | 295 kts | 331° |
| 2026-05-08 02:07 | 63.39469 | -68.45670 | 8802 ft | 295 kts | 331° |
| 2026-05-08 02:07 | 63.41275 | -68.47802 | 8526 ft | 294 kts | 331° |
| 2026-05-08 02:07 | 63.43080 | -68.49942 | 8250 ft | 293 kts | 331° |
| 2026-05-08 02:08 | 63.44881 | -68.52084 | 7974 ft | 293 kts | 331° |
| 2026-05-08 02:08 | 63.46676 | -68.54226 | 7700 ft | 292 kts | 331° |
| 2026-05-08 02:08 | 63.48466 | -68.56352 | 7419 ft | 291 kts | 332° |
| 2026-05-08 02:08 | 63.50249 | -68.58475 | 7141 ft | 290 kts | 332° |
| 2026-05-08 02:09 | 63.52033 | -68.60606 | 6874 ft | 289 kts | 332° |
| 2026-05-08 02:09 | 63.53803 | -68.62727 | 6599 ft | 289 kts | 332° |
| 2026-05-08 02:09 | 63.55570 | -68.64845 | 6326 ft | 287 kts | 332° |
| 2026-05-08 02:09 | 63.57330 | -68.66959 | 6053 ft | 286 kts | 332° |
| 2026-05-08 02:10 | 63.59077 | -68.69055 | 5783 ft | 285 kts | 332° |
| 2026-05-08 02:10 | 63.60821 | -68.71148 | 5518 ft | 282 kts | 332° |
| 2026-05-08 02:10 | 63.62548 | -68.73228 | 5246 ft | 281 kts | 332° |
| 2026-05-08 02:10 | 63.64249 | -68.75281 | 4998 ft | 280 kts | 332° |
| 2026-05-08 02:11 | 63.65962 | -68.77352 | 4727 ft | 279 kts | 332° |
| 2026-05-08 02:11 | 63.67664 | -68.79411 | 4463 ft | 277 kts | 332° |
| 2026-05-08 02:11 | 63.69354 | -68.81451 | 4202 ft | 275 kts | 332° |
| 2026-05-08 02:11 | 63.71034 | -68.83488 | 3942 ft | 273 kts | 332° |
| 2026-05-08 02:12 | 63.72702 | -68.85515 | 3682 ft | 272 kts | 332° |
| 2026-05-08 02:12 | 63.74372 | -68.87547 | 3427 ft | 272 kts | 332° |
| 2026-05-08 02:12 | 63.76030 | -68.89563 | 3222 ft | 268 kts | 332° |
| 2026-05-08 02:12 | 63.77647 | -68.91539 | 3122 ft | 261 kts | 332° |
| 2026-05-08 02:13 | 63.79224 | -68.93460 | 2995 ft | 254 kts | 332° |
| 2026-05-08 02:13 | 63.80763 | -68.95315 | 2867 ft | 247 kts | 337° |
| 2026-05-08 02:13 | 63.82394 | -68.95935 | 2797 ft | 230 kts | 13° |
| 2026-05-08 02:13 | 63.83846 | -68.94697 | 2816 ft | 221 kts | 36° |
| 2026-05-08 02:14 | 63.84984 | -68.92545 | 2822 ft | 206 kts | 50° |
| 2026-05-08 02:14 | 63.85951 | -68.90300 | 2790 ft | 192 kts | 51° |
| 2026-05-08 02:14 | 63.86846 | -68.88226 | 2791 ft | 177 kts | 51° |
| 2026-05-08 02:14 | 63.87622 | -68.86131 | 2783 ft | 169 kts | 70° |
| 2026-05-08 02:15 | 63.87763 | -68.83613 | 2818 ft | 161 kts | 105° |
| 2026-05-08 02:15 | 63.87199 | -68.81494 | 2821 ft | 158 kts | 135° |
| 2026-05-08 02:15 | 63.86440 | -68.79655 | 2813 ft | 162 kts | 134° |
| 2026-05-08 02:15 | 63.85656 | -68.77809 | 2620 ft | 162 kts | 135° |
| 2026-05-08 02:16 | 63.84877 | -68.76044 | 2427 ft | 155 kts | 135° |
| 2026-05-08 02:16 | 63.84120 | -68.74357 | 2226 ft | 149 kts | 136° |
| 2026-05-08 02:16 | 63.83408 | -68.72784 | 2028 ft | 140 kts | 135° |
| 2026-05-08 02:16 | 63.82719 | -68.71255 | 1882 ft | 138 kts | 135° |
| 2026-05-08 02:17 | 63.82018 | -68.69706 | 1665 ft | 143 kts | 135° |
| 2026-05-08 02:17 | 63.81307 | -68.68132 | 1499 ft | 144 kts | 135° |
| 2026-05-08 02:17 | 63.80596 | -68.66557 | 1294 ft | 140 kts | 135° |
| 2026-05-08 02:17 | 63.79906 | -68.65032 | 1098 ft | 137 kts | 135° |
| 2026-05-08 02:18 | 63.79218 | -68.63511 | 936 ft | 139 kts | 135° |
| 2026-05-08 02:18 | 63.78524 | -68.61974 | 742 ft | 139 kts | 135° |
| 2026-05-08 02:18 | 63.77834 | -68.60457 | 550 ft | 138 kts | 137° |
| 2026-05-08 02:18 | 63.77138 | -68.58940 | 304 ft | 139 kts | 134° |
| 2026-05-08 02:19 | 63.76467 | -68.57399 | 120 ft | 134 kts | 135° |
| 2026-05-08 02:19 | 63.75875 | -68.56078 | 96 ft | 103 kts | 135° |
| 2026-05-08 02:19 | 63.75534 | -68.55278 | 94 ft | 37 kts | 127° |
| 2026-05-08 02:19 | 63.75480 | -68.55052 | 97 ft | 1 kts | 53° |
| 2026-05-08 02:20 | 63.75486 | -68.55033 | 97 ft | 0 kts | 50° |
| 2026-05-08 02:20 | 63.75487 | -68.55032 | 97 ft | 1 kts | 49° |
| 2026-05-08 02:20 | 63.75503 | -68.54998 | 98 ft | 6 kts | 44° |
| 2026-05-08 02:21 | 63.75550 | -68.54893 | 100 ft | 14 kts | 44° |
| 2026-05-08 02:21 | 63.75598 | -68.54700 | 94 ft | 8 kts | 75° |
| 2026-05-08 02:21 | 63.75600 | -68.54679 | 94 ft | 3 kts | 75° |
| 2026-05-08 02:21 | 63.75613 | -68.54609 | 93 ft | 5 kts | 56° |
| 2026-05-08 02:22 | 63.75635 | -68.54551 | 93 ft | 4 kts | 47° |
| 2026-05-08 02:22 | 63.75644 | -68.54528 | 93 ft | 0 kts | 48° |